createdAt,value
2022-11-09T00:01:50.749Z,67.90
2022-11-09T00:04:17.374Z,67.90
2022-11-09T00:06:43.989Z,67.80
2022-11-09T00:09:10.635Z,67.80
2022-11-09T00:11:37.879Z,67.80
2022-11-09T00:14:04.718Z,67.70
2022-11-09T00:16:31.363Z,68.50
2022-11-09T00:18:58.721Z,67.80
2022-11-09T00:21:25.621Z,67.80
2022-11-09T00:23:53.067Z,67.70
2022-11-09T00:26:21.050Z,67.70
2022-11-09T00:28:48.805Z,67.80
2022-11-09T00:31:19.501Z,67.80
2022-11-09T00:33:56.011Z,67.70
2022-11-09T00:36:24.219Z,67.80
2022-11-09T00:38:52.971Z,67.80
2022-11-09T00:41:20.333Z,67.80
2022-11-09T00:43:48.061Z,67.60
2022-11-09T00:46:14.926Z,67.10
2022-11-09T00:48:41.949Z,67.70
2022-11-09T00:51:09.987Z,67.70
2022-11-09T00:53:36.649Z,67.60
2022-11-09T00:56:09.767Z,67.70
2022-11-09T00:58:38.438Z,67.60
2022-11-09T01:01:17.315Z,67.60
2022-11-09T01:03:45.122Z,67.50
2022-11-09T01:06:18.897Z,67.70
2022-11-09T01:08:46.646Z,67.70
2022-11-09T01:11:13.583Z,67.60
2022-11-09T01:13:40.619Z,67.50
2022-11-09T01:16:19.073Z,67.50
2022-11-09T01:18:46.489Z,67.60
2022-11-09T01:21:14.423Z,67.50
2022-11-09T01:23:42.732Z,67.50
2022-11-09T01:26:12.278Z,67.50
2022-11-09T01:28:40.376Z,67.50
2022-11-09T01:31:11.186Z,67.50
2022-11-09T01:33:38.188Z,68.10
2022-11-09T01:36:06.794Z,67.50
2022-11-09T01:38:34.024Z,67.50
2022-11-09T01:41:00.811Z,65.10
2022-11-09T01:43:27.763Z,67.50
2022-11-09T01:46:15.338Z,67.50
2022-11-09T01:48:57.856Z,67.10
2022-11-09T01:51:29.724Z,67.30
2022-11-09T01:54:02.539Z,67.50
2022-11-09T01:56:31.351Z,67.40
2022-11-09T01:59:03.178Z,67.50
2022-11-09T02:01:31.490Z,67.50
2022-11-09T02:04:09.338Z,67.40
2022-11-09T02:06:36.278Z,67.40
2022-11-09T02:09:23.270Z,67.50
2022-11-09T02:11:50.617Z,67.40
2022-11-09T02:14:18.574Z,67.40
2022-11-09T02:16:46.499Z,67.40
2022-11-09T02:19:13.282Z,67.30
2022-11-09T02:21:39.960Z,67.40
2022-11-09T02:24:06.753Z,67.30
2022-11-09T02:27:05.272Z,67.30
2022-11-09T02:29:43.891Z,67.30
2022-11-09T02:32:23.966Z,67.30
2022-11-09T02:34:50.542Z,67.20
2022-11-09T02:37:34.480Z,67.10
2022-11-09T02:40:04.735Z,67.10
2022-11-09T02:42:31.555Z,67.10
2022-11-09T02:44:59.857Z,67.10
2022-11-09T02:47:26.762Z,67.10
2022-11-09T02:49:53.469Z,67.10
2022-11-09T02:52:20.118Z,67.10
2022-11-09T02:54:46.714Z,66.50
2022-11-09T02:57:13.287Z,67.10
2022-11-09T02:59:39.866Z,67.10
2022-11-09T03:02:06.623Z,67.10
2022-11-09T03:04:33.245Z,67.10
2022-11-09T03:06:59.871Z,67.10
2022-11-09T03:09:26.491Z,67.10
2022-11-09T03:11:53.085Z,67.10
2022-11-09T03:14:19.697Z,66.50
2022-11-09T03:16:50.178Z,67.10
2022-11-09T03:19:17.439Z,67.00
2022-11-09T03:21:44.073Z,67.00
2022-11-09T03:24:10.786Z,67.00
2022-11-09T03:26:37.420Z,66.90
2022-11-09T03:29:03.998Z,66.90
2022-11-09T03:31:30.583Z,66.90
2022-11-09T03:33:57.183Z,67.00
2022-11-09T03:36:23.747Z,67.00
2022-11-09T03:38:50.310Z,66.90
2022-11-09T03:41:16.893Z,67.00
2022-11-09T03:43:43.461Z,67.00
2022-11-09T03:46:10.055Z,67.00
2022-11-09T03:48:36.617Z,67.10
2022-11-09T03:51:03.247Z,66.90
2022-11-09T03:53:32.310Z,66.90
2022-11-09T03:55:58.996Z,66.30
2022-11-09T03:58:25.585Z,67.00
2022-11-09T04:00:52.220Z,66.80
2022-11-09T04:03:19.118Z,66.70
2022-11-09T04:05:45.921Z,66.80
2022-11-09T04:08:12.528Z,66.80
2022-11-09T04:10:39.082Z,66.70
2022-11-09T04:13:05.765Z,66.80
2022-11-09T04:15:32.372Z,66.80
2022-11-09T04:18:00.592Z,66.80
2022-11-09T04:20:29.046Z,66.90
2022-11-09T04:22:57.579Z,66.70
2022-11-09T04:25:25.884Z,66.70
2022-11-09T04:27:59.377Z,66.60
2022-11-09T04:30:30.025Z,66.70
2022-11-09T04:32:57.518Z,66.80
2022-11-09T04:35:25.228Z,66.80
2022-11-09T04:37:58.837Z,66.80
2022-11-09T04:40:27.241Z,66.80
2022-11-09T04:42:54.143Z,66.80
2022-11-09T04:45:21.663Z,66.70
2022-11-09T04:47:48.669Z,66.50
2022-11-09T04:50:15.580Z,66.60
2022-11-09T04:52:42.243Z,66.40
2022-11-09T04:55:09.053Z,66.50
2022-11-09T04:57:35.611Z,66.30
2022-11-09T05:00:02.395Z,66.40
2022-11-09T05:02:29.017Z,66.30
2022-11-09T05:04:55.585Z,66.30
2022-11-09T05:07:22.172Z,66.50
2022-11-09T05:09:48.741Z,67.00
2022-11-09T05:12:15.393Z,66.50
2022-11-09T05:14:41.985Z,65.80
2022-11-09T05:17:08.765Z,66.50
2022-11-09T05:19:36.105Z,66.30
2022-11-09T05:22:22.953Z,66.40
2022-11-09T05:24:51.660Z,65.70
2022-11-09T05:27:18.569Z,66.30
2022-11-09T05:29:45.156Z,66.40
2022-11-09T05:32:11.757Z,66.30
2022-11-09T05:34:38.329Z,66.30
2022-11-09T05:37:04.938Z,66.40
2022-11-09T05:39:31.554Z,66.40
2022-11-09T05:41:58.172Z,66.40
2022-11-09T05:44:25.482Z,66.50
2022-11-09T05:46:52.064Z,66.50
2022-11-09T05:49:18.636Z,66.30
2022-11-09T05:51:45.211Z,66.30
2022-11-09T05:54:11.863Z,66.40
2022-11-09T05:56:38.458Z,66.30
2022-11-09T05:59:05.021Z,66.50
2022-11-09T06:01:31.625Z,66.40
2022-11-09T06:03:58.190Z,66.50
2022-11-09T06:06:24.778Z,67.60
2022-11-09T06:08:51.860Z,69.00
2022-11-09T06:11:23.661Z,67.80
2022-11-09T06:13:51.414Z,67.30
2022-11-09T06:16:18.037Z,67.20
2022-11-09T06:18:44.672Z,67.00
2022-11-09T06:21:11.318Z,66.90
2022-11-09T06:23:37.901Z,66.90
2022-11-09T06:26:07.088Z,66.90
2022-11-09T06:28:34.687Z,66.80
2022-11-09T06:31:02.512Z,66.90
2022-11-09T06:33:33.179Z,66.20
2022-11-09T06:36:00.213Z,66.60
2022-11-09T06:38:26.883Z,66.70
2022-11-09T06:40:55.309Z,66.60
2022-11-09T06:43:22.662Z,66.60
2022-11-09T06:45:49.968Z,67.00
2022-11-09T06:48:16.801Z,66.90
2022-11-09T06:50:43.512Z,66.80
2022-11-09T06:53:13.313Z,67.00
2022-11-09T06:55:43.394Z,66.40
2022-11-09T06:58:15.865Z,66.80
2022-11-09T07:00:43.794Z,66.60
2022-11-09T07:03:33.970Z,66.60
2022-11-09T07:06:05.759Z,66.50
2022-11-09T07:08:32.943Z,66.70
2022-11-09T07:11:04.717Z,66.20
2022-11-09T07:13:31.291Z,66.20
2022-11-09T07:15:58.447Z,66.30
2022-11-09T07:18:25.300Z,66.30
2022-11-09T07:20:51.937Z,66.10
2022-11-09T07:23:19.429Z,66.50
2022-11-09T07:25:46.253Z,66.40
2022-11-09T07:28:12.963Z,66.10
2022-11-09T07:30:40.093Z,66.10
2022-11-09T07:33:19.958Z,66.10
2022-11-09T07:35:46.929Z,66.30
2022-11-09T07:38:15.751Z,66.30
2022-11-09T07:40:43.161Z,66.40
2022-11-09T07:43:11.244Z,66.30
2022-11-09T07:45:38.197Z,67.20
2022-11-09T07:48:08.296Z,66.50
2022-11-09T07:50:36.025Z,66.40
2022-11-09T07:53:02.857Z,66.20
2022-11-09T07:55:30.292Z,66.30
2022-11-09T07:58:05.131Z,66.10
2022-11-09T08:00:33.612Z,66.10
2022-11-09T08:03:00.430Z,66.10
2022-11-09T08:05:27.090Z,66.10
2022-11-09T08:08:05.992Z,66.10
2022-11-09T08:10:33.861Z,66.00
2022-11-09T08:13:03.158Z,66.20
2022-11-09T08:15:30.552Z,66.10
2022-11-09T08:18:02.201Z,66.80
2022-11-09T08:20:30.086Z,66.20
2022-11-09T08:23:02.319Z,66.10
2022-11-09T08:25:31.675Z,66.00
2022-11-09T08:27:58.414Z,66.20
2022-11-09T08:30:25.477Z,66.10
2022-11-09T08:32:52.524Z,65.80
2022-11-09T08:35:21.915Z,65.90
2022-11-09T08:37:51.205Z,66.10
2022-11-09T08:40:21.724Z,66.80
2022-11-09T08:42:48.555Z,66.10
2022-11-09T08:45:15.484Z,66.30
2022-11-09T08:47:42.091Z,66.30
2022-11-09T08:50:10.328Z,66.00
2022-11-09T08:52:37.432Z,65.90
2022-11-09T08:55:04.720Z,65.90
2022-11-09T08:57:31.367Z,66.30
2022-11-09T08:59:58.194Z,66.00
2022-11-09T09:02:24.867Z,66.10
2022-11-09T09:04:51.446Z,66.00
2022-11-09T09:07:18.068Z,66.10
2022-11-09T09:09:44.748Z,65.90
2022-11-09T09:12:11.350Z,66.00
2022-11-09T09:14:38.000Z,65.90
2022-11-09T09:17:04.729Z,65.90
2022-11-09T09:19:31.919Z,65.90
2022-11-09T09:21:59.292Z,66.00
2022-11-09T09:24:26.745Z,65.60
2022-11-09T09:26:53.468Z,66.20
2022-11-09T09:29:20.116Z,66.10
2022-11-09T09:31:46.824Z,65.80
2022-11-09T09:34:14.477Z,65.70
2022-11-09T09:36:46.493Z,65.80
2022-11-09T09:39:14.440Z,65.80
2022-11-09T09:41:51.134Z,65.80
2022-11-09T09:44:32.385Z,65.30
2022-11-09T09:47:16.983Z,65.90
2022-11-09T09:49:49.000Z,66.40
2022-11-09T09:52:50.615Z,66.10
2022-11-09T09:55:39.703Z,66.10
2022-11-09T09:58:20.658Z,65.70
2022-11-09T10:00:50.497Z,65.70
2022-11-09T10:03:20.302Z,65.80
2022-11-09T10:06:14.176Z,65.80
2022-11-09T10:08:48.355Z,65.90
2022-11-09T10:11:39.210Z,65.90
2022-11-09T10:14:24.164Z,63.80
2022-11-09T10:16:57.079Z,65.90
2022-11-09T10:19:37.298Z,66.60
2022-11-09T10:22:24.406Z,65.80
2022-11-09T10:25:23.743Z,65.60
2022-11-09T10:27:52.218Z,65.80
2022-11-09T10:30:20.897Z,65.90
2022-11-09T10:33:10.672Z,65.80
2022-11-09T10:35:45.019Z,65.80
2022-11-09T10:38:27.849Z,65.80
2022-11-09T10:41:00.879Z,65.20
2022-11-09T10:43:27.498Z,65.90
2022-11-09T10:46:06.225Z,65.90
2022-11-09T10:48:36.427Z,65.90
2022-11-09T10:51:03.261Z,65.90
2022-11-09T10:53:33.871Z,66.00
2022-11-09T10:56:21.800Z,66.30
2022-11-09T10:58:53.733Z,66.20
2022-11-09T11:01:25.215Z,65.80
2022-11-09T11:03:54.057Z,65.90
2022-11-09T11:06:23.395Z,65.70
2022-11-09T11:09:01.748Z,65.80
2022-11-09T11:11:37.725Z,65.80
2022-11-09T11:14:23.155Z,65.90
2022-11-09T11:16:52.613Z,65.90
2022-11-09T11:19:36.006Z,65.90
2022-11-09T11:22:23.027Z,65.90
2022-11-09T11:24:56.305Z,65.90
2022-11-09T11:27:32.119Z,65.30
2022-11-09T11:30:15.755Z,66.00
2022-11-09T11:32:47.244Z,66.00
2022-11-09T11:35:23.267Z,66.10
2022-11-09T11:38:10.960Z,66.00
2022-11-09T11:40:51.273Z,66.10
2022-11-09T11:43:21.351Z,66.10
2022-11-09T11:45:58.497Z,66.10
2022-11-09T11:49:01.833Z,66.60
2022-11-09T11:51:43.384Z,66.30
2022-11-09T11:54:40.098Z,66.20
2022-11-09T11:57:38.783Z,66.20
2022-11-09T12:00:19.840Z,66.60
2022-11-09T12:03:14.882Z,66.00
2022-11-09T12:06:26.713Z,66.20
2022-11-09T12:09:09.127Z,66.40
2022-11-09T12:11:41.730Z,66.20
2022-11-09T12:14:51.532Z,65.90
2022-11-09T12:17:24.122Z,66.40
2022-11-09T12:20:14.057Z,66.30
2022-11-09T12:22:48.057Z,66.30
2022-11-09T12:25:21.575Z,65.50
2022-11-09T12:27:51.113Z,66.10
2022-11-09T12:30:21.382Z,66.10
2022-11-09T12:33:00.099Z,66.10
2022-11-09T12:35:38.487Z,66.10
2022-11-09T12:38:13.812Z,66.30
2022-11-09T12:40:54.074Z,66.20
2022-11-09T12:43:32.261Z,66.20
2022-11-09T12:46:01.410Z,66.40
2022-11-09T12:48:33.940Z,66.10
2022-11-09T12:51:03.595Z,66.30
2022-11-09T12:53:37.649Z,66.40
2022-11-09T12:56:08.665Z,66.30
2022-11-09T12:58:37.668Z,66.30
2022-11-09T13:01:14.063Z,66.30
2022-11-09T13:03:53.685Z,66.30
2022-11-09T13:06:29.560Z,66.40
2022-11-09T13:09:22.684Z,66.80
2022-11-09T13:11:52.228Z,66.80
2022-11-09T13:14:21.907Z,66.80
2022-11-09T13:17:26.453Z,66.90
2022-11-09T13:19:56.716Z,67.10
2022-11-09T13:22:23.257Z,67.10
2022-11-09T13:24:51.745Z,67.10
2022-11-09T13:27:33.268Z,67.20
2022-11-09T13:30:01.223Z,67.20
2022-11-09T13:32:35.096Z,67.30
2022-11-09T13:35:03.637Z,67.10
2022-11-09T13:37:42.364Z,67.70
2022-11-09T13:40:30.537Z,66.80
2022-11-09T13:42:59.949Z,67.10
2022-11-09T13:45:33.920Z,67.10
2022-11-09T13:48:00.877Z,67.20
2022-11-09T13:50:30.161Z,67.20
2022-11-09T13:52:58.734Z,67.30
2022-11-09T13:55:36.332Z,67.20
2022-11-09T13:58:12.800Z,67.20
2022-11-09T14:00:45.380Z,67.20
2022-11-09T14:03:25.243Z,67.10
2022-11-09T14:05:57.095Z,67.00
2022-11-09T14:08:27.495Z,67.10
2022-11-09T14:11:19.649Z,67.00
2022-11-09T14:14:04.172Z,67.10
2022-11-09T14:16:49.889Z,66.70
2022-11-09T14:19:22.469Z,67.10
2022-11-09T14:21:52.066Z,66.70
2022-11-09T14:24:21.935Z,66.70
2022-11-09T14:27:00.908Z,66.80
2022-11-09T14:29:30.033Z,66.90
2022-11-09T14:31:56.646Z,66.90
2022-11-09T14:34:23.316Z,66.50
2022-11-09T14:36:50.216Z,66.90
2022-11-09T14:39:32.092Z,67.20
2022-11-09T14:41:58.883Z,67.00
2022-11-09T14:44:40.037Z,66.70
2022-11-09T14:47:24.080Z,66.90
2022-11-09T14:49:51.187Z,67.30
2022-11-09T14:52:22.900Z,67.10
2022-11-09T14:54:50.003Z,66.70
2022-11-09T14:57:17.702Z,66.80
2022-11-09T14:59:45.315Z,67.00
2022-11-09T15:02:13.587Z,67.10
2022-11-09T15:05:00.974Z,66.30
2022-11-09T15:07:34.191Z,67.10
2022-11-09T15:10:06.762Z,66.60
2022-11-09T15:12:34.527Z,67.20
2022-11-09T15:15:04.973Z,67.20
2022-11-09T15:17:40.030Z,67.20
2022-11-09T15:20:06.562Z,66.70
2022-11-09T15:22:53.334Z,66.90
2022-11-09T15:25:25.993Z,66.80
2022-11-09T15:28:09.431Z,66.70
2022-11-09T15:30:39.841Z,66.90
2022-11-09T15:33:50.107Z,67.10
2022-11-09T15:36:22.604Z,67.10
2022-11-09T15:39:05.378Z,67.00
2022-11-09T15:41:32.031Z,67.10
2022-11-09T15:43:58.860Z,67.30
2022-11-09T15:46:28.484Z,67.50
2022-11-09T15:48:58.993Z,67.50
2022-11-09T15:51:25.721Z,67.70
2022-11-09T15:53:52.535Z,67.80
2022-11-09T15:56:22.787Z,67.80
2022-11-09T15:58:52.295Z,68.30
2022-11-09T16:01:19.273Z,68.10
2022-11-09T16:03:45.994Z,68.20
2022-11-09T16:06:18.844Z,67.30
2022-11-09T16:08:49.932Z,67.90
2022-11-09T16:11:16.916Z,68.10
2022-11-09T16:13:43.563Z,68.30
2022-11-09T16:16:12.035Z,68.40
2022-11-09T16:18:38.792Z,68.30
2022-11-09T16:21:14.573Z,68.50
2022-11-09T16:23:41.415Z,68.50
2022-11-09T16:26:13.780Z,68.70
2022-11-09T16:28:41.190Z,68.70
2022-11-09T16:31:08.061Z,68.80
2022-11-09T16:33:35.023Z,68.60
2022-11-09T16:36:05.829Z,68.80
2022-11-09T16:38:38.638Z,68.80
2022-11-09T16:41:05.780Z,69.00
2022-11-09T16:43:33.240Z,69.00
2022-11-09T16:46:00.097Z,69.10
2022-11-09T16:48:26.680Z,69.20
2022-11-09T16:50:53.635Z,69.10
2022-11-09T16:53:26.535Z,69.30
2022-11-09T16:55:53.692Z,69.40
2022-11-09T16:58:20.858Z,69.40
2022-11-09T17:01:11.111Z,69.40
2022-11-09T17:03:36.990Z,69.50
2022-11-09T17:06:03.936Z,69.20
2022-11-09T17:08:30.745Z,69.80
2022-11-09T17:10:57.409Z,70.40
2022-11-09T17:13:24.076Z,69.70
2022-11-09T17:15:52.519Z,69.60
2022-11-09T17:18:19.684Z,69.90
2022-11-09T17:20:49.705Z,69.90
2022-11-09T17:23:19.465Z,69.30
2022-11-09T17:26:01.752Z,69.30
2022-11-09T17:28:28.750Z,69.90
2022-11-09T17:30:55.797Z,70.00
2022-11-09T17:33:24.613Z,69.90
2022-11-09T17:36:02.445Z,70.00
2022-11-09T17:38:30.101Z,70.10
2022-11-09T17:41:11.324Z,70.10
2022-11-09T17:43:40.660Z,70.00
2022-11-09T17:46:10.000Z,70.20
2022-11-09T17:48:38.164Z,70.30
2022-11-09T17:51:06.431Z,70.30
2022-11-09T17:53:33.566Z,70.30
2022-11-09T17:56:01.650Z,70.20
2022-11-09T17:58:29.128Z,70.30
2022-11-09T18:00:55.819Z,70.40
2022-11-09T18:03:24.048Z,70.60
2022-11-09T18:05:50.633Z,70.00
2022-11-09T18:08:17.386Z,68.10
2022-11-09T18:10:45.346Z,68.90
2022-11-09T18:13:11.926Z,69.20
2022-11-09T18:15:39.557Z,68.50
2022-11-09T18:18:06.943Z,68.70
2022-11-09T18:20:33.583Z,68.40
2022-11-09T18:23:00.213Z,68.30
2022-11-09T18:25:26.873Z,69.00
2022-11-09T18:27:53.457Z,68.90
2022-11-09T18:30:20.209Z,68.90
2022-11-09T18:32:46.790Z,69.00
2022-11-09T18:35:13.377Z,68.60
2022-11-09T18:37:40.073Z,68.70
2022-11-09T18:40:07.615Z,68.50
2022-11-09T18:42:34.230Z,68.60
2022-11-09T18:45:01.034Z,68.70
2022-11-09T18:47:28.501Z,68.70
2022-11-09T18:49:55.095Z,68.60
2022-11-09T18:52:22.031Z,68.60
2022-11-09T18:54:49.362Z,67.90
2022-11-09T18:57:19.682Z,68.50
2022-11-09T18:59:46.670Z,68.50
2022-11-09T19:02:13.969Z,68.50
2022-11-09T19:04:40.872Z,68.50
2022-11-09T19:07:07.545Z,68.50
2022-11-09T19:09:38.549Z,68.50
2022-11-09T19:12:08.157Z,68.50
2022-11-09T19:14:46.233Z,68.50
2022-11-09T19:17:14.863Z,67.90
2022-11-09T19:19:42.215Z,68.50
2022-11-09T19:22:18.993Z,68.50
2022-11-09T19:24:46.357Z,68.50
2022-11-09T19:27:13.320Z,68.50
2022-11-09T19:29:39.938Z,68.50
2022-11-09T19:32:06.619Z,68.40
2022-11-09T19:34:33.376Z,68.60
2022-11-09T19:37:00.086Z,68.50
2022-11-09T19:39:31.102Z,68.50
2022-11-09T19:42:00.386Z,68.50
2022-11-09T19:44:26.988Z,68.00
2022-11-09T19:46:53.721Z,68.70
2022-11-09T19:49:20.448Z,68.80
2022-11-09T19:51:47.023Z,69.10
2022-11-09T19:54:14.308Z,68.90
2022-11-09T19:56:40.938Z,68.60
2022-11-09T19:59:07.622Z,68.50
2022-11-09T20:01:34.262Z,68.20
2022-11-09T20:04:03.184Z,68.50
2022-11-09T20:06:31.891Z,68.50
2022-11-09T20:09:01.811Z,68.30
2022-11-09T20:11:47.620Z,68.20
2022-11-09T20:14:14.697Z,68.30
2022-11-09T20:16:42.140Z,68.80
2022-11-09T20:19:11.591Z,68.70
2022-11-09T20:21:40.089Z,68.60
2022-11-09T20:24:08.163Z,68.60
2022-11-09T20:26:34.907Z,68.70
2022-11-09T20:29:01.519Z,68.60
2022-11-09T20:31:28.200Z,68.60
2022-11-09T20:33:56.513Z,69.10
2022-11-09T20:36:23.347Z,69.00
2022-11-09T20:38:50.022Z,68.90
2022-11-09T20:41:18.006Z,68.90
2022-11-09T20:43:47.459Z,68.10
2022-11-09T20:46:19.637Z,68.20
2022-11-09T20:48:54.116Z,69.30
2022-11-09T20:51:21.952Z,71.70
2022-11-09T20:53:50.625Z,69.10
2022-11-09T20:56:19.018Z,69.20
2022-11-09T20:58:46.313Z,69.00
2022-11-09T21:01:17.247Z,68.20
2022-11-09T21:03:44.864Z,68.80
2022-11-09T21:06:13.203Z,68.60
2022-11-09T21:08:40.130Z,68.70
2022-11-09T21:11:07.932Z,67.90
2022-11-09T21:13:34.641Z,68.20
2022-11-09T21:16:05.430Z,68.60
2022-11-09T21:18:32.014Z,68.60
2022-11-09T21:21:07.689Z,68.10
2022-11-09T21:23:53.078Z,68.10
2022-11-09T21:26:38.409Z,68.10
2022-11-09T21:29:26.939Z,67.90
2022-11-09T21:31:53.510Z,68.30
2022-11-09T21:34:20.181Z,67.80
2022-11-09T21:36:46.895Z,67.80
2022-11-09T21:39:13.461Z,67.70
2022-11-09T21:41:40.796Z,67.80
2022-11-09T21:44:08.563Z,67.80
2022-11-09T21:46:37.056Z,67.70
2022-11-09T21:49:05.578Z,67.70
2022-11-09T21:51:34.521Z,67.80
2022-11-09T21:54:01.433Z,67.30
2022-11-09T21:56:29.002Z,67.10
2022-11-09T21:58:55.770Z,67.90
2022-11-09T22:01:22.944Z,67.80
2022-11-09T22:03:50.306Z,68.00
2022-11-09T22:06:17.492Z,67.90
2022-11-09T22:08:45.576Z,68.00
2022-11-09T22:11:15.311Z,68.00
2022-11-09T22:14:01.053Z,68.00
2022-11-09T22:16:31.360Z,67.90
2022-11-09T22:19:16.641Z,68.10
2022-11-09T22:21:43.631Z,68.10
2022-11-09T22:24:10.982Z,68.10
2022-11-09T22:26:37.611Z,68.20
2022-11-09T22:29:04.499Z,68.10
2022-11-09T22:31:31.590Z,68.20
2022-11-09T22:33:58.264Z,68.20
2022-11-09T22:36:24.857Z,68.10
2022-11-09T22:38:51.516Z,68.20
2022-11-09T22:41:18.172Z,68.20
2022-11-09T22:43:44.887Z,68.10
2022-11-09T22:46:16.105Z,68.20
2022-11-09T22:48:44.089Z,68.20
2022-11-09T22:51:15.925Z,68.30
2022-11-09T22:53:42.728Z,68.20
2022-11-09T22:56:10.956Z,68.30
2022-11-09T22:58:37.658Z,68.20
2022-11-09T23:01:13.299Z,68.30
2022-11-09T23:03:40.497Z,68.20
2022-11-09T23:06:10.101Z,68.30
2022-11-09T23:08:38.188Z,68.30
2022-11-09T23:11:06.615Z,68.30
2022-11-09T23:13:34.455Z,68.30
2022-11-09T23:16:05.149Z,68.20
2022-11-09T23:18:51.284Z,68.30
2022-11-09T23:21:18.379Z,68.20
2022-11-09T23:23:45.396Z,68.20
2022-11-09T23:26:12.202Z,68.50
2022-11-09T23:28:38.836Z,68.30
2022-11-09T23:31:08.910Z,68.30
2022-11-09T23:33:36.165Z,68.20
2022-11-09T23:36:04.686Z,68.30
2022-11-09T23:38:34.715Z,68.30
2022-11-09T23:41:02.774Z,68.20
2022-11-09T23:43:29.381Z,68.20
2022-11-09T23:45:58.171Z,68.20
2022-11-09T23:48:24.794Z,68.30
2022-11-09T23:50:51.424Z,68.20
2022-11-09T23:53:18.317Z,68.20
2022-11-09T23:55:45.288Z,67.60
2022-11-09T23:58:12.987Z,68.20
